Time,TemperatureF,DewpointF,PressureIn,WindDirection,WindDirectionDegrees,WindSpeedMPH,WindSpeedGustMPH,Humidity,HourlyPrecipIn,Conditions,Clouds,dailyrainin,SoftwareType,DateUTC
2013-05-12 00:02:00,43.0,26.0,30.18,North,0,0.0,4.0,51,0.00,,,0.00,,2013-05-12 05:02:00,
2013-05-12 00:11:00,43.0,26.0,30.18,North,0,0.0,4.0,51,0.00,,,0.00,,2013-05-12 05:11:00,
2013-05-12 00:22:00,42.0,27.0,30.18,NW,312,1.0,3.0,54,0.00,,,0.00,,2013-05-12 05:22:00,
2013-05-12 00:32:00,41.0,26.0,30.18,North,0,0.0,3.0,55,0.00,,,0.00,,2013-05-12 05:32:00,
2013-05-12 00:42:00,41.0,26.0,30.18,North,0,0.0,3.0,55,0.00,,,0.00,,2013-05-12 05:42:00,
2013-05-12 00:51:00,41.0,26.0,30.18,NW,317,1.0,4.0,55,0.00,,,0.00,,2013-05-12 05:51:00,
2013-05-12 01:01:00,41.0,26.0,30.19,North,0,0.0,2.0,54,0.00,,,0.00,,2013-05-12 06:01:00,
2013-05-12 01:11:00,41.0,26.0,30.19,North,0,0.0,4.0,54,0.00,,,0.00,,2013-05-12 06:11:00,
2013-05-12 01:21:00,41.0,26.0,30.19,North,0,0.0,4.0,54,0.00,,,0.00,,2013-05-12 06:21:00,
2013-05-12 01:32:00,41.0,27.0,30.18,WNW,284,1.0,4.0,58,0.00,,,0.00,,2013-05-12 06:32:00,
2013-05-12 01:42:00,40.0,26.0,30.19,WNW,292,1.0,5.0,56,0.00,,,0.00,,2013-05-12 06:42:00,
2013-05-12 01:51:00,40.0,26.0,30.19,WNW,292,1.0,5.0,56,0.00,,,0.00,,2013-05-12 06:51:00,
2013-05-12 02:01:00,40.0,25.0,30.19,WNW,289,1.0,4.0,55,0.00,,,0.00,,2013-05-12 07:01:00,
2013-05-12 02:11:00,40.0,25.0,30.19,WNW,289,1.0,4.0,55,0.00,,,0.00,,2013-05-12 07:11:00,
2013-05-12 02:21:00,40.0,25.0,30.19,WNW,295,2.0,6.0,55,0.00,,,0.00,,2013-05-12 07:21:00,
2013-05-12 02:32:00,40.0,26.0,30.20,North,0,0.0,3.0,58,0.00,,,0.00,,2013-05-12 07:32:00,
2013-05-12 02:42:00,40.0,26.0,30.20,North,0,0.0,3.0,58,0.00,,,0.00,,2013-05-12 07:42:00,
2013-05-12 02:52:00,39.0,25.0,30.19,North,0,0.0,4.0,58,0.00,,,0.00,,2013-05-12 07:52:00,
2013-05-12 03:02:00,39.0,25.0,30.20,WNW,294,2.0,4.0,58,0.00,,,0.00,,2013-05-12 08:02:00,
2013-05-12 03:11:00,39.0,25.0,30.20,WNW,294,2.0,4.0,58,0.00,,,0.00,,2013-05-12 08:11:00,
2013-05-12 03:21:00,39.0,26.0,30.20,WNW,292,2.0,4.0,60,0.00,,,0.00,,2013-05-12 08:21:00,
2013-05-12 03:32:00,38.0,25.0,30.19,WNW,287,1.0,4.0,60,0.00,,,0.00,,2013-05-12 08:32:00,
2013-05-12 03:41:00,38.0,25.0,30.19,WNW,287,1.0,4.0,60,0.00,,,0.00,,2013-05-12 08:41:00,
2013-05-12 03:53:00,38.0,26.0,30.19,WNW,282,1.0,4.0,62,0.00,,,0.00,,2013-05-12 08:53:00,
2013-05-12 04:01:00,37.0,26.0,30.20,WNW,292,2.0,4.0,64,0.00,,,0.00,,2013-05-12 09:01:00,
2013-05-12 04:11:00,37.0,26.0,30.20,WNW,292,2.0,4.0,64,0.00,,,0.00,,2013-05-12 09:11:00,
2013-05-12 04:21:00,37.0,27.0,30.20,WNW,287,1.0,3.0,66,0.00,,,0.00,,2013-05-12 09:21:00,
2013-05-12 04:33:00,37.0,26.0,30.19,WNW,294,2.0,5.0,65,0.00,,,0.00,,2013-05-12 09:33:00,
2013-05-12 04:42:00,37.0,26.0,30.19,WNW,294,2.0,5.0,65,0.00,,,0.00,,2013-05-12 09:42:00,
2013-05-12 04:53:00,37.0,27.0,30.19,WNW,294,3.0,5.0,66,0.00,,,0.00,,2013-05-12 09:53:00,
2013-05-12 05:03:00,36.0,26.0,30.19,WNW,296,1.0,4.0,67,0.00,,,0.00,,2013-05-12 10:03:00,
2013-05-12 05:12:00,36.0,26.0,30.19,WNW,296,1.0,4.0,67,0.00,,,0.00,,2013-05-12 10:12:00,
2013-05-12 05:22:00,36.0,26.0,30.19,NW,306,2.0,6.0,66,0.00,,,0.00,,2013-05-12 10:22:00,
2013-05-12 05:33:00,36.0,26.0,30.19,West,274,1.0,4.0,68,0.00,,,0.00,,2013-05-12 10:33:00,
2013-05-12 05:42:00,36.0,26.0,30.19,West,274,1.0,4.0,68,0.00,,,0.00,,2013-05-12 10:42:00,
2013-05-12 05:52:00,36.0,26.0,30.19,WNW,287,1.0,3.0,68,0.00,,,0.00,,2013-05-12 10:52:00,
2013-05-12 06:02:00,35.0,27.0,30.20,North,0,0.0,2.0,71,0.00,,,0.00,,2013-05-12 11:02:00,
2013-05-12 06:12:00,35.0,27.0,30.20,North,0,0.0,2.0,71,0.00,,,0.00,,2013-05-12 11:12:00,
2013-05-12 06:21:00,34.0,26.0,30.20,North,0,0.0,1.0,73,0.00,,,0.00,,2013-05-12 11:21:00,
2013-05-12 06:32:00,33.0,26.0,30.21,North,0,0.0,0.0,76,0.00,,,0.00,,2013-05-12 11:32:00,
2013-05-12 06:42:00,34.0,27.0,30.21,North,0,0.0,2.0,74,0.00,,,0.00,,2013-05-12 11:42:00,
2013-05-12 06:52:00,34.0,27.0,30.21,North,0,0.0,2.0,74,0.00,,,0.00,,2013-05-12 11:52:00,
2013-05-12 07:01:00,35.0,28.0,30.22,North,0,0.0,1.0,75,0.00,,,0.00,,2013-05-12 12:01:00,
2013-05-12 07:11:00,36.0,28.0,30.22,WNW,285,1.0,2.0,72,0.00,,,0.00,,2013-05-12 12:11:00,
2013-05-12 07:21:00,36.0,28.0,30.22,WNW,285,1.0,2.0,72,0.00,,,0.00,,2013-05-12 12:21:00,
2013-05-12 07:32:00,38.0,28.0,30.22,North,0,0.0,3.0,68,0.00,,,0.00,,2013-05-12 12:32:00,
2013-05-12 07:41:00,38.0,28.0,30.22,North,0,0.0,3.0,68,0.00,,,0.00,,2013-05-12 12:41:00,
2013-05-12 07:52:00,40.0,30.0,30.23,North,0,0.0,3.0,66,0.00,,,0.00,,2013-05-12 12:52:00,
2013-05-12 08:01:00,41.0,29.0,30.23,North,0,0.0,4.0,61,0.00,,,0.00,,2013-05-12 13:01:00,
2013-05-12 08:11:00,41.0,29.0,30.23,North,0,0.0,4.0,61,0.00,,,0.00,,2013-05-12 13:11:00,
2013-05-12 08:21:00,43.0,30.0,30.24,North,0,0.0,3.0,59,0.00,,,0.00,,2013-05-12 13:21:00,
2013-05-12 08:32:00,39.0,29.0,30.23,West,277,1.0,3.0,66,0.00,,,0.00,,2013-05-12 13:32:00,
2013-05-12 08:41:00,39.0,29.0,30.23,West,277,1.0,3.0,66,0.00,,,0.00,,2013-05-12 13:41:00,
2013-05-12 08:52:00,44.0,29.0,30.24,WNW,296,1.0,3.0,56,0.00,,,0.00,,2013-05-12 13:52:00,
2013-05-12 09:01:00,46.0,29.0,30.24,NW,319,1.0,4.0,52,0.00,,,0.00,,2013-05-12 14:01:00,
2013-05-12 09:11:00,46.0,29.0,30.24,NW,319,1.0,4.0,52,0.00,,,0.00,,2013-05-12 14:11:00,
2013-05-12 09:21:00,47.0,28.0,30.25,WNW,294,2.0,5.0,48,0.00,,,0.00,,2013-05-12 14:21:00,
2013-05-12 09:32:00,48.0,27.0,30.25,NNE,21,1.0,3.0,44,0.00,,,0.00,,2013-05-12 14:32:00,
2013-05-12 09:42:00,49.0,26.0,30.25,West,281,2.0,4.0,41,0.00,,,0.00,,2013-05-12 14:42:00,
2013-05-12 09:52:00,49.0,26.0,30.25,West,281,2.0,4.0,41,0.00,,,0.00,,2013-05-12 14:52:00,
2013-05-12 10:01:00,49.0,26.0,30.25,West,268,2.0,5.0,40,0.00,,,0.00,,2013-05-12 15:01:00,
2013-05-12 10:11:00,49.0,26.0,30.25,West,268,2.0,5.0,40,0.00,,,0.00,,2013-05-12 15:11:00,
2013-05-12 10:21:00,49.0,27.0,30.24,North,0,0.0,8.0,43,0.00,,,0.00,,2013-05-12 15:21:00,
2013-05-12 10:34:00,49.0,27.0,30.24,West,272,7.0,12.0,42,0.00,,,0.00,,2013-05-12 15:34:00,
2013-05-12 10:42:00,49.0,27.0,30.24,West,272,7.0,12.0,42,0.00,,,0.00,,2013-05-12 15:42:00,
2013-05-12 10:52:00,50.0,27.0,30.24,West,267,5.0,10.0,40,0.00,,,0.00,,2013-05-12 15:52:00,
2013-05-12 11:02:00,50.0,27.0,30.24,WNW,294,6.0,11.0,40,0.00,,,0.00,,2013-05-12 16:02:00,
2013-05-12 11:12:00,50.0,27.0,30.24,WNW,294,6.0,11.0,40,0.00,,,0.00,,2013-05-12 16:12:00,
2013-05-12 11:23:00,51.0,29.0,30.24,West,280,2.0,9.0,43,0.00,,,0.00,,2013-05-12 16:23:00,
2013-05-12 11:32:00,52.0,30.0,30.24,NW,325,1.0,13.0,42,0.00,,,0.00,,2013-05-12 16:32:00,
2013-05-12 11:42:00,52.0,30.0,30.24,NW,325,1.0,13.0,42,0.00,,,0.00,,2013-05-12 16:42:00,
2013-05-12 11:52:00,52.0,25.0,30.24,WNW,286,5.0,14.0,34,0.00,,,0.00,,2013-05-12 16:52:00,
2013-05-12 12:02:00,54.0,28.0,30.23,NW,308,3.0,9.0,36,0.00,,,0.00,,2013-05-12 17:02:00,
2013-05-12 12:12:00,54.0,28.0,30.23,NW,316,5.0,12.0,36,0.00,,,0.00,,2013-05-12 17:12:00,
2013-05-12 12:22:00,54.0,28.0,30.23,NW,316,5.0,12.0,36,0.00,,,0.00,,2013-05-12 17:22:00,
2013-05-12 12:32:00,54.0,27.0,30.23,WNW,298,5.0,15.0,35,0.00,,,0.00,,2013-05-12 17:32:00,
2013-05-12 12:42:00,55.0,27.0,30.22,NNW,335,3.0,12.0,34,0.00,,,0.00,,2013-05-12 17:42:00,
2013-05-12 12:52:00,55.0,27.0,30.22,NNW,335,3.0,12.0,34,0.00,,,0.00,,2013-05-12 17:52:00,
2013-05-12 13:01:00,54.0,22.0,30.22,WNW,297,8.0,17.0,29,0.00,,,0.00,,2013-05-12 18:01:00,
2013-05-12 13:12:00,54.0,22.0,30.22,WNW,297,8.0,17.0,29,0.00,,,0.00,,2013-05-12 18:12:00,
2013-05-12 13:22:00,54.0,22.0,30.22,WNW,299,6.0,17.0,29,0.00,,,0.00,,2013-05-12 18:22:00,
2013-05-12 13:32:00,54.0,22.0,30.22,WNW,299,6.0,17.0,29,0.00,,,0.00,,2013-05-12 18:32:00,
2013-05-12 13:42:00,54.0,22.0,30.22,WNW,299,6.0,17.0,29,0.00,,,0.00,,2013-05-12 18:42:00,
2013-05-12 13:51:00,56.0,26.0,30.21,WNW,285,8.0,14.0,31,0.00,,,0.00,,2013-05-12 18:51:00,
2013-05-12 14:01:00,57.0,27.0,30.20,NNW,336,4.0,15.0,32,0.00,,,0.00,,2013-05-12 19:01:00,
2013-05-12 14:11:00,57.0,27.0,30.20,NNW,336,4.0,15.0,32,0.00,,,0.00,,2013-05-12 19:11:00,
2013-05-12 14:21:00,57.0,25.0,30.20,WNW,292,8.0,15.0,29,0.00,,,0.00,,2013-05-12 19:21:00,
2013-05-12 14:32:00,57.0,24.0,30.19,WNW,282,7.0,14.0,28,0.00,,,0.00,,2013-05-12 19:32:00,
2013-05-12 14:42:00,57.0,25.0,30.19,WNW,289,4.0,14.0,29,0.00,,,0.00,,2013-05-12 19:42:00,
2013-05-12 14:52:00,57.0,25.0,30.19,WNW,289,4.0,14.0,29,0.00,,,0.00,,2013-05-12 19:52:00,
2013-05-12 15:02:00,57.0,24.0,30.19,WNW,292,5.0,14.0,28,0.00,,,0.00,,2013-05-12 20:02:00,
2013-05-12 15:11:00,58.0,24.0,30.18,WNW,295,4.0,10.0,27,0.00,,,0.00,,2013-05-12 20:11:00,
2013-05-12 15:21:00,58.0,24.0,30.18,WNW,295,4.0,10.0,27,0.00,,,0.00,,2013-05-12 20:21:00,
2013-05-12 15:32:00,59.0,26.0,30.17,NW,312,3.0,13.0,28,0.00,,,0.00,,2013-05-12 20:32:00,
2013-05-12 15:42:00,59.0,26.0,30.17,NW,312,3.0,13.0,28,0.00,,,0.00,,2013-05-12 20:42:00,
2013-05-12 15:52:00,60.0,26.0,30.17,WNW,291,7.0,16.0,27,0.00,,,0.00,,2013-05-12 20:52:00,
2013-05-12 16:01:00,60.0,29.0,30.16,NNW,328,5.0,12.0,31,0.00,,,0.00,,2013-05-12 21:01:00,
2013-05-12 16:11:00,60.0,26.0,30.16,West,273,4.0,14.0,27,0.00,,,0.00,,2013-05-12 21:11:00,
2013-05-12 16:21:00,60.0,26.0,30.16,West,273,4.0,14.0,27,0.00,,,0.00,,2013-05-12 21:21:00,
2013-05-12 16:33:00,60.0,26.0,30.16,West,273,4.0,14.0,27,0.00,,,0.00,,2013-05-12 21:33:00,
2013-05-12 16:42:00,60.0,26.0,30.16,West,273,4.0,14.0,27,0.00,,,0.00,,2013-05-12 21:42:00,
2013-05-12 16:52:00,61.0,27.0,30.15,NNW,334,5.0,12.0,27,0.00,,,0.00,,2013-05-12 21:52:00,
2013-05-12 17:02:00,61.0,26.0,30.14,NW,311,4.0,13.0,26,0.00,,,0.00,,2013-05-12 22:02:00,
2013-05-12 17:12:00,61.0,26.0,30.14,NNW,327,3.0,14.0,26,0.00,,,0.00,,2013-05-12 22:12:00,
2013-05-12 17:23:00,61.0,26.0,30.14,NNW,327,3.0,14.0,26,0.00,,,0.00,,2013-05-12 22:23:00,
2013-05-12 17:33:00,61.0,27.0,30.14,NW,311,4.0,10.0,27,0.00,,,0.00,,2013-05-12 22:33:00,
2013-05-12 17:42:00,61.0,27.0,30.14,NW,311,4.0,10.0,27,0.00,,,0.00,,2013-05-12 22:42:00,
2013-05-12 17:52:00,61.0,26.0,30.14,NW,318,4.0,13.0,26,0.00,,,0.00,,2013-05-12 22:52:00,
2013-05-12 18:02:00,60.0,22.0,30.14,West,281,6.0,12.0,23,0.00,,,0.00,,2013-05-12 23:02:00,
2013-05-12 18:12:00,61.0,24.0,30.13,NNW,335,3.0,12.0,24,0.00,,,0.00,,2013-05-12 23:12:00,
2013-05-12 18:22:00,61.0,24.0,30.13,NNW,335,3.0,12.0,24,0.00,,,0.00,,2013-05-12 23:22:00,
2013-05-12 18:32:00,60.0,25.0,30.12,West,280,4.0,12.0,26,0.00,,,0.00,,2013-05-12 23:32:00,
2013-05-12 18:42:00,60.0,25.0,30.12,West,280,4.0,12.0,26,0.00,,,0.00,,2013-05-12 23:42:00,
2013-05-12 18:52:00,60.0,24.0,30.12,WNW,284,5.0,10.0,25,0.00,,,0.00,,2013-05-12 23:52:00,
2013-05-12 19:01:00,60.0,24.0,30.12,WNW,284,5.0,10.0,25,0.00,,,0.00,,2013-05-13 00:01:00,
2013-05-12 19:11:00,60.0,24.0,30.12,WNW,284,5.0,10.0,25,0.00,,,0.00,,2013-05-13 00:11:00,
2013-05-12 19:21:00,60.0,23.0,30.12,WNW,296,4.0,10.0,24,0.00,,,0.00,,2013-05-13 00:21:00,
2013-05-12 19:32:00,60.0,23.0,30.12,WNW,296,4.0,10.0,24,0.00,,,0.00,,2013-05-13 00:32:00,
2013-05-12 19:42:00,59.0,23.0,30.12,WNW,294,4.0,8.0,25,0.00,,,0.00,,2013-05-13 00:42:00,
2013-05-12 19:51:00,59.0,23.0,30.12,WNW,294,4.0,8.0,25,0.00,,,0.00,,2013-05-13 00:51:00,
2013-05-12 20:01:00,59.0,23.0,30.12,WNW,294,4.0,8.0,25,0.00,,,0.00,,2013-05-13 01:01:00,
2013-05-12 20:11:00,59.0,23.0,30.12,WNW,294,4.0,8.0,25,0.00,,,0.00,,2013-05-13 01:11:00,
2013-05-12 20:22:00,58.0,27.0,30.12,WSW,253,1.0,4.0,30,0.00,,,0.00,,2013-05-13 01:22:00,
2013-05-12 20:31:00,56.0,27.0,30.12,West,271,1.0,2.0,33,0.00,,,0.00,,2013-05-13 01:31:00,
2013-05-12 20:42:00,56.0,27.0,30.12,West,271,1.0,2.0,33,0.00,,,0.00,,2013-05-13 01:42:00,
2013-05-12 20:52:00,54.0,28.0,30.12,North,0,0.0,0.0,36,0.00,,,0.00,,2013-05-13 01:52:00,
2013-05-12 21:01:00,52.0,27.0,30.12,North,0,0.0,1.0,38,0.00,,,0.00,,2013-05-13 02:01:00,
2013-05-12 21:11:00,52.0,27.0,30.12,North,0,0.0,1.0,38,0.00,,,0.00,,2013-05-13 02:11:00,
2013-05-12 21:21:00,49.0,29.0,30.12,North,0,0.0,0.0,46,0.00,,,0.00,,2013-05-13 02:21:00,
2013-05-12 21:31:00,49.0,29.0,30.12,North,0,0.0,0.0,46,0.00,,,0.00,,2013-05-13 02:31:00,
2013-05-12 21:41:00,49.0,29.0,30.12,North,0,0.0,0.0,46,0.00,,,0.00,,2013-05-13 02:41:00,
2013-05-12 21:51:00,45.0,34.0,30.13,North,0,0.0,0.0,65,0.00,,,0.00,,2013-05-13 02:51:00,
2013-05-12 22:02:00,43.0,33.0,30.13,North,0,0.0,0.0,68,0.00,,,0.00,,2013-05-13 03:02:00,
2013-05-12 22:11:00,43.0,33.0,30.13,North,0,0.0,0.0,68,0.00,,,0.00,,2013-05-13 03:11:00,
2013-05-12 22:21:00,42.0,33.0,30.13,North,0,0.0,0.0,69,0.00,,,0.00,,2013-05-13 03:21:00,
2013-05-12 22:32:00,41.0,35.0,30.13,North,0,0.0,0.0,78,0.00,,,0.00,,2013-05-13 03:32:00,
2013-05-12 22:42:00,41.0,35.0,30.13,North,0,0.0,0.0,78,0.00,,,0.00,,2013-05-13 03:42:00,
2013-05-12 22:52:00,42.0,35.0,30.13,North,0,0.0,0.0,76,0.00,,,0.00,,2013-05-13 03:52:00,
2013-05-12 23:02:00,43.0,35.0,30.13,North,0,0.0,0.0,72,0.00,,,0.00,,2013-05-13 04:02:00,
2013-05-12 23:12:00,43.0,35.0,30.13,North,0,0.0,0.0,72,0.00,,,0.00,,2013-05-13 04:12:00,
2013-05-12 23:23:00,43.0,35.0,30.13,North,0,0.0,0.0,72,0.00,,,0.00,,2013-05-13 04:23:00,
2013-05-12 23:32:00,40.0,32.0,30.13,North,0,0.0,0.0,74,0.00,,,0.00,,2013-05-13 04:32:00,
2013-05-12 23:42:00,40.0,32.0,30.13,North,0,0.0,0.0,74,0.00,,,0.00,,2013-05-13 04:42:00,
2013-05-12 23:52:00,39.0,33.0,30.13,North,0,0.0,0.0,78,0.00,,,0.00,,2013-05-13 04:52:00,